Time,TemperatureF,DewpointF,PressureIn,WindDirection,WindDirectionDegrees,WindSpeedMPH,WindSpeedGustMPH,Humidity,HourlyPrecipIn,Conditions,Clouds,dailyrainin,SoftwareType,DateUTC
2013-03-03 00:00:00,29.7,24.3,30.12,SE,133,0.0,0.0,80,0.00,,SKC,0.00,VWS V13.01,2013-03-03 06:00:00,
2013-03-03 00:05:00,29.6,24.2,30.12,SE,143,0.0,8.0,80,0.00,,SKC,0.00,VWS V13.01,2013-03-03 06:05:00,
2013-03-03 00:10:00,29.5,24.1,30.12,SE,143,0.0,2.0,80,0.00,,SKC,0.00,VWS V13.01,2013-03-03 06:10:00,
2013-03-03 00:15:00,29.5,24.1,30.12,SE,132,0.0,0.0,80,0.00,,SKC,0.00,VWS V13.01,2013-03-03 06:15:00,
2013-03-03 00:20:00,29.4,24.3,30.12,SE,127,0.0,4.0,81,0.00,,SKC,0.00,VWS V13.01,2013-03-03 06:20:00,
2013-03-03 00:25:00,29.4,24.3,30.11,SE,139,0.0,5.0,81,0.00,,SKC,0.00,VWS V13.01,2013-03-03 06:25:00,
2013-03-03 00:30:00,29.4,24.3,30.11,SE,143,0.0,0.0,81,0.00,,SKC,0.00,VWS V13.01,2013-03-03 06:30:00,
2013-03-03 00:35:00,29.4,24.3,30.11,SSE,161,0.0,0.0,81,0.00,,SKC,0.00,VWS V13.01,2013-03-03 06:35:00,
2013-03-03 00:40:00,29.3,24.2,30.10,SE,142,0.0,6.0,81,0.00,,SKC,0.00,VWS V13.01,2013-03-03 06:40:00,
2013-03-03 00:45:00,29.3,24.2,30.10,SE,141,0.0,9.0,81,0.00,,SKC,0.00,VWS V13.01,2013-03-03 06:45:00,
2013-03-03 00:51:00,29.3,24.5,30.10,SSE,148,0.0,4.0,82,0.00,,SKC,0.00,VWS V13.01,2013-03-03 06:51:00,
2013-03-03 00:56:00,29.3,24.5,30.10,SSE,158,5.0,6.0,82,0.00,,SKC,0.00,VWS V13.01,2013-03-03 06:56:00,
2013-03-03 01:01:00,29.2,24.4,30.10,SSE,162,0.0,0.0,82,0.00,,SKC,0.00,VWS V13.01,2013-03-03 07:01:00,
2013-03-03 01:06:00,29.2,24.4,30.09,SE,137,0.0,4.0,82,0.00,,SKC,0.00,VWS V13.01,2013-03-03 07:06:00,
2013-03-03 01:11:00,29.1,24.3,30.09,SSE,166,0.0,2.0,82,0.00,,SKC,0.00,VWS V13.01,2013-03-03 07:11:00,
2013-03-03 01:16:00,29.1,24.3,30.09,East,91,1.0,4.0,82,0.00,,SKC,0.00,VWS V13.01,2013-03-03 07:16:00,
2013-03-03 01:21:00,29.0,24.2,30.09,South,176,0.0,0.0,82,0.00,,SKC,0.00,VWS V13.01,2013-03-03 07:21:00,
2013-03-03 01:26:00,29.0,24.2,30.09,South,181,0.0,0.0,82,0.00,,SKC,0.00,VWS V13.01,2013-03-03 07:26:00,
2013-03-03 01:31:00,29.0,24.2,30.09,SSE,153,2.0,6.0,82,0.00,,SKC,0.00,VWS V13.01,2013-03-03 07:31:00,
2013-03-03 01:36:00,29.0,24.2,30.09,SE,130,1.0,7.0,82,0.00,,SKC,0.00,VWS V13.01,2013-03-03 07:36:00,
2013-03-03 01:41:00,28.9,24.1,30.08,South,171,0.0,3.0,82,0.00,,SKC,0.00,VWS V13.01,2013-03-03 07:41:00,
2013-03-03 01:46:00,28.9,24.4,30.09,SSE,166,4.0,5.0,83,0.00,,SKC,0.00,VWS V13.01,2013-03-03 07:46:00,
2013-03-03 01:51:00,28.8,24.3,30.09,South,170,4.0,4.0,83,0.00,,SKC,0.00,VWS V13.01,2013-03-03 07:51:00,
2013-03-03 01:56:00,28.8,24.3,30.09,SSE,158,0.0,8.0,83,0.00,,SKC,0.00,VWS V13.01,2013-03-03 07:56:00,
2013-03-03 02:01:00,28.8,24.3,30.08,SE,141,0.0,5.0,83,0.00,,SKC,0.00,VWS V13.01,2013-03-03 08:01:00,
2013-03-03 02:06:00,28.7,23.9,30.08,SE,137,7.0,7.0,82,0.00,,SKC,0.00,VWS V13.01,2013-03-03 08:06:00,
2013-03-03 02:11:00,28.6,23.8,30.08,SE,127,0.0,9.0,82,0.00,,SKC,0.00,VWS V13.01,2013-03-03 08:11:00,
2013-03-03 02:16:00,28.6,23.8,30.07,SE,133,4.0,14.0,82,0.00,,SKC,0.00,VWS V13.01,2013-03-03 08:16:00,
2013-03-03 02:21:00,28.6,23.8,30.07,SSE,150,0.0,6.0,82,0.00,,SKC,0.00,VWS V13.01,2013-03-03 08:21:00,
2013-03-03 02:26:00,28.5,23.7,30.07,East,90,2.0,7.0,82,0.00,,SKC,0.00,VWS V13.01,2013-03-03 08:26:00,
2013-03-03 02:31:00,28.5,23.7,30.07,SSE,164,5.0,8.0,82,0.00,,SKC,0.00,VWS V13.01,2013-03-03 08:31:00,
2013-03-03 02:36:00,28.5,23.7,30.06,SSE,162,1.0,7.0,82,0.00,,SKC,0.00,VWS V13.01,2013-03-03 08:36:00,
2013-03-03 02:41:00,28.5,23.7,30.06,SSE,151,5.0,7.0,82,0.00,,SKC,0.00,VWS V13.01,2013-03-03 08:41:00,
2013-03-03 02:46:00,28.5,23.7,30.06,SE,145,0.0,2.0,82,0.00,,SKC,0.00,VWS V13.01,2013-03-03 08:46:00,
2013-03-03 02:51:00,28.5,23.7,30.06,ESE,119,0.0,0.0,82,0.00,,SKC,0.00,VWS V13.01,2013-03-03 08:51:00,
2013-03-03 02:56:00,28.4,23.6,30.06,SE,137,6.0,7.0,82,0.00,,SKC,0.00,VWS V13.01,2013-03-03 08:56:00,
2013-03-03 03:01:00,28.4,23.6,30.05,SSE,151,0.0,5.0,82,0.00,,SKC,0.00,VWS V13.01,2013-03-03 09:01:00,
2013-03-03 03:06:00,28.4,23.6,30.05,SSE,157,6.0,6.0,82,0.00,,SKC,0.00,VWS V13.01,2013-03-03 09:06:00,
2013-03-03 03:11:00,28.3,23.5,30.05,SE,141,0.0,0.0,82,0.00,,SKC,0.00,VWS V13.01,2013-03-03 09:11:00,
2013-03-03 03:16:00,28.3,23.5,30.05,SE,143,8.0,8.0,82,0.00,,SKC,0.00,VWS V13.01,2013-03-03 09:16:00,
2013-03-03 03:21:00,28.3,23.5,30.04,SSE,167,2.0,7.0,82,0.00,,SKC,0.00,VWS V13.01,2013-03-03 09:21:00,
2013-03-03 03:26:00,28.3,23.5,30.04,ESE,120,1.0,4.0,82,0.00,,SKC,0.00,VWS V13.01,2013-03-03 09:26:00,
2013-03-03 03:31:00,28.3,23.5,30.04,SSE,153,4.0,6.0,82,0.00,,SKC,0.00,VWS V13.01,2013-03-03 09:31:00,
2013-03-03 03:36:00,28.3,23.5,30.03,SE,141,0.0,0.0,82,0.00,,SKC,0.00,VWS V13.01,2013-03-03 09:36:00,
2013-03-03 03:41:00,28.2,23.4,30.03,SE,138,4.0,6.0,82,0.00,,SKC,0.00,VWS V13.01,2013-03-03 09:41:00,
2013-03-03 03:46:00,28.2,23.4,30.03,SSE,148,0.0,7.0,82,0.00,,SKC,0.00,VWS V13.01,2013-03-03 09:46:00,
2013-03-03 03:51:00,28.2,23.4,30.03,SE,146,0.0,5.0,82,0.00,,SKC,0.00,VWS V13.01,2013-03-03 09:51:00,
2013-03-03 03:56:00,28.2,23.4,30.02,SSE,152,4.0,6.0,82,0.00,,SKC,0.00,VWS V13.01,2013-03-03 09:56:00,
2013-03-03 04:01:00,28.1,23.3,30.02,SE,143,0.0,0.0,82,0.00,,SKC,0.00,VWS V13.01,2013-03-03 10:01:00,
2013-03-03 04:06:00,28.1,23.3,30.02,SSE,152,0.0,4.0,82,0.00,,SKC,0.00,VWS V13.01,2013-03-03 10:06:00,
2013-03-03 04:11:00,28.1,23.6,30.02,SSE,167,6.0,6.0,83,0.00,,SKC,0.00,VWS V13.01,2013-03-03 10:11:00,
2013-03-03 04:16:00,28.0,23.5,30.02,SE,139,0.0,0.0,83,0.00,,SKC,0.00,VWS V13.01,2013-03-03 10:16:00,
2013-03-03 04:21:00,28.0,23.5,30.02,SSE,147,0.0,0.0,83,0.00,,SKC,0.00,VWS V13.01,2013-03-03 10:21:00,
2013-03-03 04:26:00,28.0,23.5,30.02,SE,129,6.0,9.0,83,0.00,,SKC,0.00,VWS V13.01,2013-03-03 10:26:00,
2013-03-03 04:31:00,28.0,23.5,30.02,SE,145,0.0,7.0,83,0.00,,SKC,0.00,VWS V13.01,2013-03-03 10:31:00,
2013-03-03 04:36:00,28.0,23.5,30.02,SE,131,6.0,6.0,83,0.00,,SKC,0.00,VWS V13.01,2013-03-03 10:36:00,
2013-03-03 04:41:00,28.0,23.5,30.01,SE,138,6.0,6.0,83,0.00,,SKC,0.00,VWS V13.01,2013-03-03 10:41:00,
2013-03-03 04:46:00,27.9,23.4,30.01,ESE,115,0.0,1.0,83,0.00,,SKC,0.00,VWS V13.01,2013-03-03 10:46:00,
2013-03-03 04:51:00,27.9,23.4,30.02,SE,133,0.0,7.0,83,0.00,,SKC,0.00,VWS V13.01,2013-03-03 10:51:00,
2013-03-03 04:56:00,27.9,23.4,30.02,SSE,151,0.0,8.0,83,0.00,,SKC,0.00,VWS V13.01,2013-03-03 10:56:00,
2013-03-03 05:01:00,27.9,23.4,30.02,SE,135,0.0,7.0,83,0.00,,SKC,0.00,VWS V13.01,2013-03-03 11:01:00,
2013-03-03 05:06:00,27.9,23.4,30.02,SE,139,0.0,0.0,83,0.00,,SKC,0.00,VWS V13.01,2013-03-03 11:06:00,
2013-03-03 05:11:00,27.9,23.4,30.02,SE,136,0.0,0.0,83,0.00,,SKC,0.00,VWS V13.01,2013-03-03 11:11:00,
2013-03-03 05:16:00,27.9,23.4,30.01,SE,137,0.0,0.0,83,0.00,,SKC,0.00,VWS V13.01,2013-03-03 11:16:00,
2013-03-03 05:21:00,27.8,23.3,30.01,SE,141,4.0,8.0,83,0.00,,SKC,0.00,VWS V13.01,2013-03-03 11:21:00,
2013-03-03 05:26:00,27.8,23.3,30.01,SE,139,10.0,12.0,83,0.00,,SKC,0.00,VWS V13.01,2013-03-03 11:26:00,
2013-03-03 05:31:00,27.8,23.3,30.01,ESE,108,5.0,5.0,83,0.00,,SKC,0.00,VWS V13.01,2013-03-03 11:31:00,
2013-03-03 05:36:00,27.8,23.3,30.01,SE,131,0.0,0.0,83,0.00,,SKC,0.00,VWS V13.01,2013-03-03 11:36:00,
2013-03-03 05:41:00,27.8,23.3,30.01,ESE,120,0.0,0.0,83,0.00,,SKC,0.00,VWS V13.01,2013-03-03 11:41:00,
2013-03-03 05:46:00,27.8,23.3,30.01,SE,144,0.0,7.0,83,0.00,,SKC,0.00,VWS V13.01,2013-03-03 11:46:00,
2013-03-03 05:51:00,27.7,23.2,30.01,SE,139,0.0,5.0,83,0.00,,SKC,0.00,VWS V13.01,2013-03-03 11:51:00,
2013-03-03 05:56:00,27.7,23.2,30.01,SE,131,4.0,8.0,83,0.00,,SKC,0.00,VWS V13.01,2013-03-03 11:56:00,
2013-03-03 06:01:00,27.7,23.2,30.00,SE,138,0.0,0.0,83,0.00,,SKC,0.00,VWS V13.01,2013-03-03 12:01:00,
2013-03-03 06:06:00,27.6,23.1,30.00,SE,124,2.0,7.0,83,0.00,,SKC,0.00,VWS V13.01,2013-03-03 12:06:00,
2013-03-03 06:11:00,27.6,23.1,30.00,East,99,2.0,5.0,83,0.00,,SKC,0.00,VWS V13.01,2013-03-03 12:11:00,
2013-03-03 06:16:00,27.5,23.0,30.00,SE,131,0.0,0.0,83,0.00,,SKC,0.00,VWS V13.01,2013-03-03 12:16:00,
2013-03-03 06:21:00,27.4,22.9,30.00,SE,128,2.0,6.0,83,0.00,,SKC,0.00,VWS V13.01,2013-03-03 12:21:00,
2013-03-03 06:26:00,27.2,22.7,30.00,ESE,120,0.0,0.0,83,0.00,,SKC,0.00,VWS V13.01,2013-03-03 12:26:00,
2013-03-03 06:31:00,27.2,22.7,30.00,ESE,119,0.0,0.0,83,0.00,,SKC,0.00,VWS V13.01,2013-03-03 12:31:00,
2013-03-03 06:36:00,27.1,22.6,29.99,ESE,112,5.0,7.0,83,0.00,,SKC,0.00,VWS V13.01,2013-03-03 12:36:00,
2013-03-03 06:41:00,27.0,22.5,30.00,ESE,121,0.0,0.0,83,0.00,,SKC,0.00,VWS V13.01,2013-03-03 12:41:00,
2013-03-03 06:46:00,26.9,22.4,30.00,ESE,121,0.0,0.0,83,0.00,,SKC,0.00,VWS V13.01,2013-03-03 12:46:00,
2013-03-03 06:51:00,26.9,22.4,30.00,ESE,120,0.0,0.0,83,0.00,,SKC,0.00,VWS V13.01,2013-03-03 12:51:00,
2013-03-03 06:56:00,26.8,22.6,30.00,ESE,118,0.0,0.0,84,0.00,,SKC,0.00,VWS V13.01,2013-03-03 12:56:00,
2013-03-03 07:01:00,26.8,22.6,30.01,ESE,119,0.0,0.0,84,0.00,,SKC,0.00,VWS V13.01,2013-03-03 13:01:00,
2013-03-03 07:06:00,26.7,22.5,30.00,ESE,118,0.0,0.0,84,0.00,,SKC,0.00,VWS V13.01,2013-03-03 13:06:00,
2013-03-03 07:11:00,26.7,22.5,30.00,ESE,111,4.0,5.0,84,0.00,,SKC,0.00,VWS V13.01,2013-03-03 13:11:00,
2013-03-03 07:16:00,26.7,22.5,30.00,ESE,110,0.0,0.0,84,0.00,,SKC,0.00,VWS V13.01,2013-03-03 13:16:00,
2013-03-03 07:21:00,26.7,22.5,30.00,ESE,113,2.0,5.0,84,0.00,,SKC,0.00,VWS V13.01,2013-03-03 13:21:00,
2013-03-03 07:26:00,26.7,22.5,30.00,ESE,122,2.0,5.0,84,0.00,,SKC,0.00,VWS V13.01,2013-03-03 13:26:00,
2013-03-03 07:31:00,26.9,22.7,30.00,ESE,123,5.0,5.0,84,0.00,,SKC,0.00,VWS V13.01,2013-03-03 13:31:00,
2013-03-03 07:36:00,27.1,22.9,29.99,SE,130,0.0,9.0,84,0.00,,SKC,0.00,VWS V13.01,2013-03-03 13:36:00,
2013-03-03 07:41:00,27.3,23.1,29.99,ESE,108,8.0,12.0,84,0.00,,SKC,0.00,VWS V13.01,2013-03-03 13:41:00,
2013-03-03 07:46:00,27.6,23.4,29.99,SE,128,5.0,5.0,84,0.00,,SKC,0.00,VWS V13.01,2013-03-03 13:46:00,
2013-03-03 07:51:00,27.9,23.4,29.99,ESE,121,6.0,7.0,83,0.00,,SKC,0.00,VWS V13.01,2013-03-03 13:51:00,
2013-03-03 07:56:00,28.1,23.6,29.99,ESE,104,0.0,6.0,83,0.00,,SKC,0.00,VWS V13.01,2013-03-03 13:56:00,
2013-03-03 08:01:00,28.4,23.6,29.99,SE,141,7.0,11.0,82,0.00,,SKC,0.00,VWS V13.01,2013-03-03 14:01:00,
2013-03-03 08:06:00,28.6,23.5,29.99,SE,124,5.0,6.0,81,0.00,,SKC,0.00,VWS V13.01,2013-03-03 14:06:00,
2013-03-03 08:11:00,28.7,23.6,29.99,SE,126,9.0,11.0,81,0.00,,SKC,0.00,VWS V13.01,2013-03-03 14:11:00,
2013-03-03 08:16:00,28.8,23.7,29.99,SE,141,0.0,8.0,81,0.00,,SKC,0.00,VWS V13.01,2013-03-03 14:16:00,
2013-03-03 08:21:00,29.0,23.6,29.98,ESE,122,0.0,8.0,80,0.00,,SKC,0.00,VWS V13.01,2013-03-03 14:21:00,
2013-03-03 08:26:00,29.3,23.9,29.98,SE,131,7.0,8.0,80,0.00,,SKC,0.00,VWS V13.01,2013-03-03 14:26:00,
2013-03-03 08:31:00,29.5,24.1,29.98,SSE,161,5.0,7.0,80,0.00,,SKC,0.00,VWS V13.01,2013-03-03 14:31:00,
2013-03-03 08:36:00,29.7,24.0,29.98,SSE,164,0.0,8.0,79,0.00,,SKC,0.00,VWS V13.01,2013-03-03 14:36:00,
2013-03-03 08:41:00,30.0,24.3,29.98,SE,144,11.0,11.0,79,0.00,,SKC,0.00,VWS V13.01,2013-03-03 14:41:00,
2013-03-03 08:46:00,30.3,24.3,29.98,ESE,112,0.0,5.0,78,0.00,,SKC,0.00,VWS V13.01,2013-03-03 14:46:00,
2013-03-03 08:51:00,30.7,24.7,29.98,East,90,1.0,5.0,78,0.00,,SKC,0.00,VWS V13.01,2013-03-03 14:51:00,
2013-03-03 08:56:00,31.2,24.8,29.98,SE,128,0.0,11.0,77,0.00,,SKC,0.00,VWS V13.01,2013-03-03 14:56:00,
2013-03-03 09:01:00,31.5,24.8,29.98,ENE,67,0.0,9.0,76,0.00,,SKC,0.00,VWS V13.01,2013-03-03 15:01:00,
2013-03-03 09:06:00,32.1,25.4,29.97,SSE,152,4.0,5.0,76,0.00,,SKC,0.00,VWS V13.01,2013-03-03 15:06:00,
2013-03-03 09:11:00,32.6,25.6,29.97,ESE,120,8.0,8.0,75,0.00,,SKC,0.00,VWS V13.01,2013-03-03 15:11:00,
2013-03-03 09:16:00,33.1,25.4,29.97,East,81,4.0,11.0,73,0.00,,SKC,0.00,VWS V13.01,2013-03-03 15:16:00,
2013-03-03 09:21:00,33.5,25.8,29.97,SSE,158,2.0,12.0,73,0.00,,SKC,0.00,VWS V13.01,2013-03-03 15:21:00,
2013-03-03 09:26:00,33.9,25.8,29.97,SE,143,6.0,11.0,72,0.00,,SKC,0.00,VWS V13.01,2013-03-03 15:26:00,
2013-03-03 09:31:00,34.7,26.6,29.96,South,181,2.0,8.0,72,0.00,,SKC,0.00,VWS V13.01,2013-03-03 15:31:00,
2013-03-03 09:36:00,35.1,26.3,29.96,ESE,112,0.0,11.0,70,0.00,,SKC,0.00,VWS V13.01,2013-03-03 15:36:00,
2013-03-03 09:41:00,35.3,26.5,29.96,East,101,2.0,11.0,70,0.00,,SKC,0.00,VWS V13.01,2013-03-03 15:41:00,
2013-03-03 09:46:00,35.7,26.5,29.96,SSE,164,6.0,9.0,69,0.00,,SKC,0.00,VWS V13.01,2013-03-03 15:46:00,
2013-03-03 09:51:00,36.4,27.2,29.96,SE,139,0.0,6.0,69,0.00,,SKC,0.00,VWS V13.01,2013-03-03 15:51:00,
2013-03-03 09:56:00,37.0,27.1,29.95,East,94,7.0,13.0,67,0.00,,SKC,0.00,VWS V13.01,2013-03-03 15:56:00,
2013-03-03 10:01:00,37.1,27.2,29.96,SSE,156,4.0,9.0,67,0.00,,SKC,0.00,VWS V13.01,2013-03-03 16:01:00,
2013-03-03 10:06:00,37.2,26.9,29.95,SSE,167,2.0,6.0,66,0.00,,SKC,0.00,VWS V13.01,2013-03-03 16:06:00,
2013-03-03 10:11:00,37.3,27.4,29.95,ENE,77,2.0,5.0,67,0.00,,SKC,0.00,VWS V13.01,2013-03-03 16:11:00,
2013-03-03 10:16:00,37.5,27.2,29.95,NE,38,2.0,13.0,66,0.00,,SKC,0.00,VWS V13.01,2013-03-03 16:16:00,
2013-03-03 10:21:00,37.8,27.5,29.95,ESE,104,2.0,4.0,66,0.00,,SKC,0.00,VWS V13.01,2013-03-03 16:21:00,
2013-03-03 10:26:00,38.4,27.7,29.95,ENE,74,3.0,9.0,65,0.00,,SKC,0.00,VWS V13.01,2013-03-03 16:26:00,
2013-03-03 10:31:00,38.9,27.8,29.95,ESE,108,0.0,5.0,64,0.00,,SKC,0.00,VWS V13.01,2013-03-03 16:31:00,
2013-03-03 10:36:00,39.8,28.2,29.95,SE,133,6.0,8.0,63,0.00,,SKC,0.00,VWS V13.01,2013-03-03 16:36:00,
2013-03-03 10:41:00,39.8,27.9,29.95,SE,143,6.0,12.0,62,0.00,,SKC,0.00,VWS V13.01,2013-03-03 16:41:00,
2013-03-03 10:46:00,40.1,28.9,29.94,East,97,0.0,10.0,64,0.00,,SKC,0.00,VWS V13.01,2013-03-03 16:46:00,
2013-03-03 10:51:00,40.5,28.5,29.94,SE,145,6.0,8.0,62,0.00,,SKC,0.00,VWS V13.01,2013-03-03 16:51:00,
2013-03-03 10:56:00,40.1,27.8,29.94,East,99,4.0,15.0,61,0.00,,SKC,0.00,VWS V13.01,2013-03-03 16:56:00,
2013-03-03 11:01:00,39.0,27.5,29.94,East,95,1.0,6.0,63,0.00,,SKC,0.00,VWS V13.01,2013-03-03 17:01:00,
2013-03-03 11:06:00,39.6,29.2,29.94,SSE,160,1.0,8.0,66,0.00,,SKC,0.00,VWS V13.01,2013-03-03 17:06:00,
2013-03-03 11:11:00,39.8,28.2,29.94,ENE,70,4.0,8.0,63,0.00,,SKC,0.00,VWS V13.01,2013-03-03 17:11:00,
2013-03-03 11:16:00,39.4,27.9,29.94,SSE,159,5.0,8.0,63,0.00,,SKC,0.00,VWS V13.01,2013-03-03 17:16:00,
2013-03-03 11:21:00,39.2,28.1,29.94,SE,124,0.0,9.0,64,0.00,,SKC,0.00,VWS V13.01,2013-03-03 17:21:00,
2013-03-03 11:26:00,39.1,28.0,29.93,SE,132,1.0,8.0,64,0.00,,SKC,0.00,VWS V13.01,2013-03-03 17:26:00,
2013-03-03 11:31:00,39.5,28.4,29.93,South,191,8.0,12.0,64,0.00,,SKC,0.00,VWS V13.01,2013-03-03 17:31:00,
2013-03-03 11:36:00,39.4,27.9,29.93,South,177,5.0,11.0,63,0.00,,SKC,0.00,VWS V13.01,2013-03-03 17:36:00,
2013-03-03 11:41:00,39.4,28.2,29.93,South,181,0.0,14.0,64,0.00,,SKC,0.00,VWS V13.01,2013-03-03 17:41:00,
2013-03-03 11:46:00,39.4,28.6,29.92,South,187,2.0,9.0,65,0.00,,SKC,0.00,VWS V13.01,2013-03-03 17:46:00,
2013-03-03 11:51:00,39.9,29.1,29.92,SE,131,5.0,10.0,65,0.00,,SKC,0.00,VWS V13.01,2013-03-03 17:51:00,
2013-03-03 11:56:00,40.0,28.8,29.92,East,83,0.0,9.0,64,0.00,,SKC,0.00,VWS V13.01,2013-03-03 17:56:00,
2013-03-03 12:01:00,39.8,28.6,29.92,SSE,149,9.0,9.0,64,0.00,,SKC,0.00,VWS V13.01,2013-03-03 18:01:00,
2013-03-03 12:06:00,40.0,28.8,29.91,SSW,194,3.0,12.0,64,0.00,,SKC,0.00,VWS V13.01,2013-03-03 18:06:00,
2013-03-03 12:11:00,40.3,29.1,29.91,ESE,113,0.0,14.0,64,0.00,,SKC,0.00,VWS V13.01,2013-03-03 18:11:00,
2013-03-03 12:16:00,40.7,29.5,29.90,ESE,122,0.0,9.0,64,0.00,,SKC,0.00,VWS V13.01,2013-03-03 18:16:00,
2013-03-03 12:21:00,40.7,29.1,29.91,ESE,123,8.0,11.0,63,0.00,,SKC,0.00,VWS V13.01,2013-03-03 18:21:00,
2013-03-03 12:26:00,39.8,28.2,29.90,ESE,105,11.0,13.0,63,0.00,,SKC,0.00,VWS V13.01,2013-03-03 18:26:00,
2013-03-03 12:31:00,39.6,28.8,29.90,ESE,116,11.0,12.0,65,0.00,,SKC,0.00,VWS V13.01,2013-03-03 18:31:00,
2013-03-03 12:36:00,40.0,28.8,29.90,East,93,6.0,12.0,64,0.00,,SKC,0.00,VWS V13.01,2013-03-03 18:36:00,
2013-03-03 12:41:00,40.5,29.3,29.90,SSW,193,1.0,8.0,64,0.00,,SKC,0.00,VWS V13.01,2013-03-03 18:41:00,
2013-03-03 12:46:00,41.2,30.0,29.90,ESE,122,1.0,11.0,64,0.00,,SKC,0.00,VWS V13.01,2013-03-03 18:46:00,
2013-03-03 12:51:00,41.5,29.5,29.89,ESE,111,0.0,13.0,62,0.00,,SKC,0.00,VWS V13.01,2013-03-03 18:51:00,
2013-03-03 12:56:00,41.9,29.9,29.89,East,86,0.0,13.0,62,0.00,,SKC,0.00,VWS V13.01,2013-03-03 18:56:00,
2013-03-03 13:01:00,41.8,29.4,29.89,South,181,4.0,13.0,61,0.00,,SKC,0.00,VWS V13.01,2013-03-03 19:01:00,
2013-03-03 13:06:00,42.3,30.6,29.89,East,97,0.0,4.0,63,0.00,,SKC,0.00,VWS V13.01,2013-03-03 19:06:00,
2013-03-03 13:11:00,42.7,29.8,29.88,ENE,77,1.0,13.0,60,0.00,,SKC,0.00,VWS V13.01,2013-03-03 19:11:00,
2013-03-03 13:16:00,42.7,30.2,29.88,ESE,114,0.0,6.0,61,0.00,,SKC,0.00,VWS V13.01,2013-03-03 19:16:00,
2013-03-03 13:21:00,42.9,30.4,29.87,East,82,3.0,9.0,61,0.00,,SKC,0.00,VWS V13.01,2013-03-03 19:21:00,
2013-03-03 13:26:00,42.4,29.9,29.87,ESE,116,9.0,19.0,61,0.00,,SKC,0.00,VWS V13.01,2013-03-03 19:26:00,
2013-03-03 13:31:00,41.6,29.6,29.87,East,91,3.0,11.0,62,0.00,,SKC,0.00,VWS V13.01,2013-03-03 19:31:00,
2013-03-03 13:36:00,40.9,29.7,29.87,East,99,13.0,16.0,64,0.00,,SKC,0.00,VWS V13.01,2013-03-03 19:36:00,
2013-03-03 13:41:00,40.8,30.3,29.87,South,179,4.0,6.0,66,0.00,,SKC,0.00,VWS V13.01,2013-03-03 19:41:00,
2013-03-03 13:46:00,41.5,30.6,29.87,SSE,159,1.0,9.0,65,0.00,,SKC,0.00,VWS V13.01,2013-03-03 19:46:00,
2013-03-03 13:51:00,42.0,30.7,29.87,SSE,152,5.0,16.0,64,0.00,,SKC,0.00,VWS V13.01,2013-03-03 19:51:00,
2013-03-03 13:56:00,42.0,30.3,29.86,ESE,114,7.0,18.0,63,0.00,,SKC,0.00,VWS V13.01,2013-03-03 19:56:00,
2013-03-03 14:01:00,41.7,30.4,29.86,ESE,107,6.0,14.0,64,0.00,,SKC,0.00,VWS V13.01,2013-03-03 20:01:00,
2013-03-03 14:06:00,41.2,30.3,29.85,SSE,164,1.0,14.0,65,0.00,,SKC,0.00,VWS V13.01,2013-03-03 20:06:00,
2013-03-03 14:11:00,40.6,30.1,29.85,East,96,11.0,19.0,66,0.00,,SKC,0.00,VWS V13.01,2013-03-03 20:11:00,
2013-03-03 14:16:00,40.1,30.4,29.85,ENE,76,12.0,18.0,68,0.00,,SKC,0.00,VWS V13.01,2013-03-03 20:16:00,
2013-03-03 14:21:00,40.1,30.4,29.85,SE,143,6.0,11.0,68,0.00,,SKC,0.00,VWS V13.01,2013-03-03 20:21:00,
2013-03-03 14:26:00,40.2,30.1,29.85,ESE,107,8.0,13.0,67,0.00,,SKC,0.00,VWS V13.01,2013-03-03 20:26:00,
2013-03-03 14:31:00,40.3,30.6,29.86,ESE,111,13.0,13.0,68,0.00,,SKC,0.00,VWS V13.01,2013-03-03 20:31:00,
2013-03-03 14:36:00,40.2,30.5,29.86,SE,133,7.0,11.0,68,0.00,,SKC,0.00,VWS V13.01,2013-03-03 20:36:00,
2013-03-03 14:41:00,40.4,30.7,29.85,East,95,8.0,14.0,68,0.00,,SKC,0.00,VWS V13.01,2013-03-03 20:41:00,
2013-03-03 14:46:00,40.6,30.9,29.84,ESE,106,11.0,11.0,68,0.00,,SKC,0.00,VWS V13.01,2013-03-03 20:46:00,
2013-03-03 14:52:00,40.4,30.3,29.84,ESE,107,9.0,16.0,67,0.00,,SKC,0.00,VWS V13.01,2013-03-03 20:52:00,
2013-03-03 14:57:00,40.5,30.4,29.84,East,93,9.0,17.0,67,0.00,,SKC,0.00,VWS V13.01,2013-03-03 20:57:00,
2013-03-03 15:02:00,40.3,30.2,29.84,SSE,147,8.0,15.0,67,0.00,,SKC,0.00,VWS V13.01,2013-03-03 21:02:00,
2013-03-03 15:07:00,40.3,30.6,29.84,ENE,78,10.0,17.0,68,0.00,,SKC,0.00,VWS V13.01,2013-03-03 21:07:00,
2013-03-03 15:12:00,40.4,30.3,29.84,ESE,118,12.0,20.0,67,0.00,,SKC,0.00,VWS V13.01,2013-03-03 21:12:00,
2013-03-03 15:17:00,40.4,30.3,29.84,ESE,120,13.0,18.0,67,0.00,,SKC,0.00,VWS V13.01,2013-03-03 21:17:00,
2013-03-03 15:22:00,40.2,30.1,29.83,ESE,120,18.0,22.0,67,0.00,,SKC,0.00,VWS V13.01,2013-03-03 21:22:00,
2013-03-03 15:27:00,40.1,30.4,29.83,ESE,108,1.0,13.0,68,0.00,,SKC,0.00,VWS V13.01,2013-03-03 21:27:00,
2013-03-03 15:32:00,40.3,30.6,29.83,ESE,115,8.0,16.0,68,0.00,,SKC,0.00,VWS V13.01,2013-03-03 21:32:00,
2013-03-03 15:38:00,40.1,30.4,29.83,ESE,110,12.0,14.0,68,0.00,,SKC,0.00,VWS V13.01,2013-03-03 21:38:00,
2013-03-03 15:43:00,39.9,29.9,29.84,ESE,116,9.0,15.0,67,0.00,,SKC,0.00,VWS V13.01,2013-03-03 21:43:00,
2013-03-03 15:48:00,40.0,30.3,29.84,ESE,107,11.0,13.0,68,0.00,,SKC,0.00,VWS V13.01,2013-03-03 21:48:00,
2013-03-03 15:53:00,40.1,30.0,29.84,East,86,17.0,20.0,67,0.00,,SKC,0.00,VWS V13.01,2013-03-03 21:53:00,
2013-03-03 15:58:00,39.8,29.8,29.84,East,93,2.0,15.0,67,0.00,,SKC,0.00,VWS V13.01,2013-03-03 21:58:00,
2013-03-03 16:03:00,39.9,29.9,29.83,East,92,10.0,13.0,67,0.00,,SKC,0.00,VWS V13.01,2013-03-03 22:03:00,
2013-03-03 16:09:00,39.9,29.9,29.83,ESE,122,14.0,22.0,67,0.00,,SKC,0.00,VWS V13.01,2013-03-03 22:09:00,
2013-03-03 16:14:00,39.7,29.7,29.83,East,97,13.0,16.0,67,0.00,,SKC,0.00,VWS V13.01,2013-03-03 22:14:00,
2013-03-03 16:19:00,39.5,29.5,29.82,ESE,110,9.0,19.0,67,0.00,,SKC,0.00,VWS V13.01,2013-03-03 22:19:00,
2013-03-03 16:24:00,39.6,29.6,29.82,ESE,118,7.0,15.0,67,0.00,,SKC,0.00,VWS V13.01,2013-03-03 22:24:00,
2013-03-03 16:29:00,39.3,29.3,29.83,SE,129,14.0,14.0,67,0.00,,SKC,0.00,VWS V13.01,2013-03-03 22:29:00,
2013-03-03 16:34:00,39.3,29.6,29.83,East,81,6.0,14.0,68,0.00,,SKC,0.00,VWS V13.01,2013-03-03 22:34:00,
2013-03-03 16:39:00,39.3,29.6,29.83,SE,143,5.0,15.0,68,0.00,,SKC,0.00,VWS V13.01,2013-03-03 22:39:00,
2013-03-03 16:44:00,39.2,29.5,29.83,ESE,107,15.0,24.0,68,0.00,,SKC,0.00,VWS V13.01,2013-03-03 22:44:00,
2013-03-03 16:49:00,39.0,29.0,29.82,ESE,113,1.0,15.0,67,0.00,,SKC,0.00,VWS V13.01,2013-03-03 22:49:00,
2013-03-03 16:54:00,38.9,28.9,29.82,SE,129,14.0,18.0,67,0.00,,SKC,0.00,VWS V13.01,2013-03-03 22:54:00,
2013-03-03 16:59:00,38.8,29.2,29.82,ESE,119,2.0,12.0,68,0.00,,SKC,0.00,VWS V13.01,2013-03-03 22:59:00,
2013-03-03 17:05:00,38.7,29.1,29.81,ESE,113,28.0,28.0,68,0.00,,SKC,0.00,VWS V13.01,2013-03-03 23:05:00,
2013-03-03 17:10:00,38.6,29.0,29.79,ESE,119,12.0,19.0,68,0.00,,SKC,0.00,VWS V13.01,2013-03-03 23:10:00,
2013-03-03 17:15:00,38.5,29.2,29.80,SE,126,9.0,11.0,69,0.00,,SKC,0.00,VWS V13.01,2013-03-03 23:15:00,
2013-03-03 17:20:00,38.4,29.1,29.79,ESE,121,13.0,24.0,69,0.00,,SKC,0.00,VWS V13.01,2013-03-03 23:20:00,
2013-03-03 17:25:00,38.2,28.9,29.80,SSE,153,11.0,13.0,69,0.00,,SKC,0.00,VWS V13.01,2013-03-03 23:25:00,
2013-03-03 17:30:00,38.1,28.8,29.79,East,83,12.0,21.0,69,0.00,,SKC,0.00,VWS V13.01,2013-03-03 23:30:00,
2013-03-03 17:35:00,37.9,29.0,29.79,East,101,12.0,22.0,70,0.00,,SKC,0.00,VWS V13.01,2013-03-03 23:35:00,
2013-03-03 17:41:00,37.7,28.8,29.78,East,95,8.0,18.0,70,0.00,,SKC,0.00,VWS V13.01,2013-03-03 23:41:00,
2013-03-03 17:46:00,37.5,28.6,29.77,East,93,12.0,20.0,70,0.00,,SKC,0.00,VWS V13.01,2013-03-03 23:46:00,
2013-03-03 17:51:00,37.4,28.5,29.82,SSW,194,1.0,13.0,70,0.00,,SKC,0.00,VWS V13.01,2013-03-03 23:51:00,
2013-03-03 17:56:00,37.4,28.5,29.81,SSW,198,2.0,20.0,70,0.00,,SKC,0.00,VWS V13.01,2013-03-03 23:56:00,
2013-03-03 18:01:00,37.3,28.4,29.80,East,96,15.0,18.0,70,0.00,,SKC,0.00,VWS V13.01,2013-03-04 00:01:00,
2013-03-03 18:06:00,37.2,28.3,29.80,ESE,102,1.0,19.0,70,0.00,,SKC,0.00,VWS V13.01,2013-03-04 00:06:00,
2013-03-03 18:11:00,37.1,28.2,29.80,ESE,112,21.0,21.0,70,0.00,,SKC,0.00,VWS V13.01,2013-03-04 00:11:00,
2013-03-03 18:16:00,37.1,28.6,29.80,East,97,5.0,13.0,71,0.00,,SKC,0.00,VWS V13.01,2013-03-04 00:16:00,
2013-03-03 18:21:00,37.0,28.1,29.82,East,83,3.0,11.0,70,0.00,,SKC,0.00,VWS V13.01,2013-03-04 00:21:00,
2013-03-03 18:26:00,37.0,28.5,29.82,ENE,74,4.0,12.0,71,0.00,,SKC,0.00,VWS V13.01,2013-03-04 00:26:00,
2013-03-03 18:31:00,36.9,28.4,29.82,ESE,103,6.0,20.0,71,0.00,,SKC,0.00,VWS V13.01,2013-03-04 00:31:00,
2013-03-03 18:36:00,36.8,28.3,29.83,ESE,106,4.0,11.0,71,0.00,,SKC,0.00,VWS V13.01,2013-03-04 00:36:00,
2013-03-03 18:41:00,36.7,28.2,29.82,ESE,110,13.0,13.0,71,0.00,,SKC,0.00,VWS V13.01,2013-03-04 00:41:00,
2013-03-03 18:46:00,36.6,28.1,29.80,East,98,19.0,21.0,71,0.00,,SKC,0.00,VWS V13.01,2013-03-04 00:46:00,
2013-03-03 18:51:00,36.5,28.0,29.81,ESE,120,7.0,13.0,71,0.00,,SKC,0.00,VWS V13.01,2013-03-04 00:51:00,
2013-03-03 18:56:00,36.5,28.4,29.81,East,87,3.0,12.0,72,0.00,,SKC,0.00,VWS V13.01,2013-03-04 00:56:00,
2013-03-03 19:01:00,36.4,28.2,29.82,East,97,6.0,11.0,72,0.00,,SKC,0.00,VWS V13.01,2013-03-04 01:01:00,
2013-03-03 19:06:00,36.3,28.1,29.81,East,84,21.0,21.0,72,0.00,,SKC,0.00,VWS V13.01,2013-03-04 01:06:00,
2013-03-03 19:11:00,36.2,28.1,29.81,SE,131,4.0,15.0,72,0.00,,SKC,0.00,VWS V13.01,2013-03-04 01:11:00,
2013-03-03 19:16:00,36.2,28.1,29.82,ESE,115,6.0,15.0,72,0.00,,SKC,0.00,VWS V13.01,2013-03-04 01:16:00,
2013-03-03 19:21:00,36.2,28.1,29.81,ESE,120,14.0,20.0,72,0.00,,SKC,0.00,VWS V13.01,2013-03-04 01:21:00,
2013-03-03 19:26:00,36.1,28.0,29.82,SE,124,4.0,14.0,72,0.00,,SKC,0.00,VWS V13.01,2013-03-04 01:26:00,
2013-03-03 19:31:00,36.1,28.0,29.82,SE,143,7.0,11.0,72,0.00,,SKC,0.00,VWS V13.01,2013-03-04 01:31:00,
2013-03-03 19:36:00,36.1,28.0,29.84,SW,219,1.0,4.0,72,0.00,,SKC,0.00,VWS V13.01,2013-03-04 01:36:00,
2013-03-03 19:41:00,36.1,28.0,29.80,East,79,7.0,26.0,72,0.00,,SKC,0.00,VWS V13.01,2013-03-04 01:41:00,
2013-03-03 19:46:00,36.0,27.9,29.79,ENE,70,10.0,25.0,72,0.00,,SKC,0.00,VWS V13.01,2013-03-04 01:46:00,
2013-03-03 19:51:00,35.9,28.1,29.82,SSE,161,1.0,4.0,73,0.00,,SKC,0.00,VWS V13.01,2013-03-04 01:51:00,
2013-03-03 19:56:00,35.9,28.1,29.81,East,101,6.0,8.0,73,0.00,,SKC,0.00,VWS V13.01,2013-03-04 01:56:00,
2013-03-03 20:01:00,35.8,28.0,29.83,SSE,159,0.0,5.0,73,0.00,,SKC,0.00,VWS V13.01,2013-03-04 02:01:00,
2013-03-03 20:06:00,35.8,28.0,29.83,ESE,118,11.0,11.0,73,0.00,,SKC,0.00,VWS V13.01,2013-03-04 02:06:00,
2013-03-03 20:11:00,35.7,27.9,29.84,SSW,194,1.0,3.0,73,0.00,,SKC,0.00,VWS V13.01,2013-03-04 02:11:00,
2013-03-03 20:16:00,35.7,27.9,29.85,SSE,158,7.0,8.0,73,0.00,,SKC,0.00,VWS V13.01,2013-03-04 02:16:00,
2013-03-03 20:21:00,35.7,27.9,29.84,ESE,110,0.0,6.0,73,0.00,,SKC,0.00,VWS V13.01,2013-03-04 02:21:00,
2013-03-03 20:26:00,35.6,27.8,29.84,SE,129,8.0,8.0,73,0.00,,SKC,0.00,VWS V13.01,2013-03-04 02:26:00,
2013-03-03 20:31:00,35.6,27.8,29.84,East,85,0.0,12.0,73,0.00,,SKC,0.00,VWS V13.01,2013-03-04 02:31:00,
2013-03-03 20:36:00,35.6,27.8,29.83,ESE,106,8.0,9.0,73,0.00,,SKC,0.00,VWS V13.01,2013-03-04 02:36:00,
2013-03-03 20:41:00,35.5,28.0,29.82,SE,137,7.0,8.0,74,0.00,,SKC,0.00,VWS V13.01,2013-03-04 02:41:00,
2013-03-03 20:46:00,35.4,28.0,29.82,SE,126,6.0,15.0,74,0.00,,SKC,0.00,VWS V13.01,2013-03-04 02:46:00,
2013-03-03 20:51:00,35.4,28.0,29.82,East,95,12.0,19.0,74,0.00,,SKC,0.00,VWS V13.01,2013-03-04 02:51:00,
2013-03-03 20:56:00,35.3,27.9,29.81,East,95,9.0,18.0,74,0.00,,SKC,0.00,VWS V13.01,2013-03-04 02:56:00,
2013-03-03 21:01:00,35.3,27.9,29.81,ESE,116,8.0,12.0,74,0.00,,SKC,0.00,VWS V13.01,2013-03-04 03:01:00,
2013-03-03 21:06:00,35.2,27.8,29.81,ESE,110,2.0,15.0,74,0.00,,SKC,0.00,VWS V13.01,2013-03-04 03:06:00,
2013-03-03 21:11:00,35.2,27.8,29.81,SE,125,6.0,9.0,74,0.00,,SKC,0.00,VWS V13.01,2013-03-04 03:11:00,
2013-03-03 21:16:00,35.1,27.7,29.81,ESE,114,11.0,13.0,74,0.00,,SKC,0.00,VWS V13.01,2013-03-04 03:16:00,
2013-03-03 21:21:00,35.1,27.7,29.81,East,95,5.0,22.0,74,0.00,,SKC,0.00,VWS V13.01,2013-03-04 03:21:00,
2013-03-03 21:26:00,35.0,27.6,29.81,ESE,119,2.0,16.0,74,0.00,,SKC,0.00,VWS V13.01,2013-03-04 03:26:00,
2013-03-03 21:31:00,35.0,27.2,29.80,SSE,158,7.0,15.0,73,0.00,,SKC,0.00,VWS V13.01,2013-03-04 03:31:00,
2013-03-03 21:36:00,34.9,27.1,29.80,ESE,118,7.0,14.0,73,0.00,,SKC,0.00,VWS V13.01,2013-03-04 03:36:00,
2013-03-03 21:41:00,34.9,27.5,29.80,ESE,103,9.0,9.0,74,0.00,,SKC,0.00,VWS V13.01,2013-03-04 03:41:00,
2013-03-03 21:46:00,34.8,27.0,29.80,East,89,7.0,14.0,73,0.00,,SKC,0.00,VWS V13.01,2013-03-04 03:46:00,
2013-03-03 21:51:00,34.8,27.0,29.80,ESE,110,13.0,18.0,73,0.00,,SKC,0.00,VWS V13.01,2013-03-04 03:51:00,
2013-03-03 21:56:00,34.8,27.0,29.80,ESE,115,14.0,17.0,73,0.00,,SKC,0.00,VWS V13.01,2013-03-04 03:56:00,
2013-03-03 22:01:00,34.8,26.7,29.79,East,99,15.0,17.0,72,0.00,,SKC,0.00,VWS V13.01,2013-03-04 04:01:00,
2013-03-03 22:06:00,34.7,26.6,29.79,SE,130,9.0,16.0,72,0.00,,SKC,0.00,VWS V13.01,2013-03-04 04:06:00,
2013-03-03 22:11:00,34.7,26.6,29.80,ESE,122,6.0,9.0,72,0.00,,SKC,0.00,VWS V13.01,2013-03-04 04:11:00,
2013-03-03 22:16:00,34.7,26.6,29.79,East,99,6.0,10.0,72,0.00,,SKC,0.00,VWS V13.01,2013-03-04 04:16:00,
2013-03-03 22:21:00,34.7,26.6,29.80,East,95,11.0,16.0,72,0.00,,SKC,0.00,VWS V13.01,2013-03-04 04:21:00,
2013-03-03 22:26:00,34.6,26.5,29.80,ESE,118,7.0,13.0,72,0.00,,SKC,0.00,VWS V13.01,2013-03-04 04:26:00,
2013-03-03 22:31:00,34.6,26.5,29.80,ESE,120,6.0,14.0,72,0.00,,SKC,0.00,VWS V13.01,2013-03-04 04:31:00,
2013-03-03 22:36:00,34.7,26.6,29.81,SE,129,2.0,10.0,72,0.00,,SKC,0.00,VWS V13.01,2013-03-04 04:36:00,
2013-03-03 22:41:00,34.7,26.3,29.80,ESE,122,4.0,14.0,71,0.00,,SKC,0.00,VWS V13.01,2013-03-04 04:41:00,
2013-03-03 22:46:00,34.7,26.3,29.80,SE,130,11.0,15.0,71,0.00,,SKC,0.00,VWS V13.01,2013-03-04 04:46:00,
2013-03-03 22:51:00,34.7,26.3,29.79,SSE,147,4.0,11.0,71,0.00,,SKC,0.00,VWS V13.01,2013-03-04 04:51:00,
2013-03-03 22:56:00,34.6,26.2,29.79,ESE,107,13.0,13.0,71,0.00,,SKC,0.00,VWS V13.01,2013-03-04 04:56:00,
2013-03-03 23:00:00,34.6,26.2,29.79,ESE,112,6.0,15.0,71,0.00,,SKC,0.00,VWS V13.01,2013-03-04 05:00:00,
2013-03-03 23:01:00,34.5,26.1,29.79,ESE,114,8.0,8.0,71,0.00,,SKC,0.00,VWS V13.01,2013-03-04 05:01:00,
2013-03-03 23:02:00,34.5,26.1,29.79,East,99,8.0,9.0,71,0.00,,SKC,0.00,VWS V13.01,2013-03-04 05:02:00,
2013-03-03 23:05:00,34.4,26.3,29.79,East,91,5.0,8.0,72,0.00,,SKC,0.00,VWS V13.01,2013-03-04 05:05:00,
2013-03-03 23:10:00,34.2,26.1,29.79,NE,39,3.0,21.0,72,0.00,,SKC,0.00,VWS V13.01,2013-03-04 05:10:00,
2013-03-03 23:15:00,34.2,26.1,29.78,ESE,116,13.0,13.0,72,0.00,,SKC,0.00,VWS V13.01,2013-03-04 05:15:00,
2013-03-03 23:20:00,34.1,26.0,29.78,East,100,8.0,12.0,72,0.00,,SKC,0.00,VWS V13.01,2013-03-04 05:20:00,
2013-03-03 23:25:00,33.9,26.2,29.78,ENE,78,5.0,16.0,73,0.00,,SKC,0.00,VWS V13.01,2013-03-04 05:25:00,
2013-03-03 23:30:00,33.9,26.2,29.77,ESE,114,11.0,12.0,73,0.00,,SKC,0.00,VWS V13.01,2013-03-04 05:30:00,
2013-03-03 23:35:00,33.8,26.1,29.77,East,86,5.0,11.0,73,0.00,,SKC,0.00,VWS V13.01,2013-03-04 05:35:00,
2013-03-03 23:40:00,33.7,26.0,29.77,SSE,151,8.0,19.0,73,0.00,,SKC,0.00,VWS V13.01,2013-03-04 05:40:00,
2013-03-03 23:45:00,33.7,26.0,29.76,East,92,0.0,12.0,73,0.00,,SKC,0.00,VWS V13.01,2013-03-04 05:45:00,
2013-03-03 23:50:00,33.6,25.9,29.76,ESE,118,0.0,9.0,73,0.00,,SKC,0.00,VWS V13.01,2013-03-04 05:50:00,
2013-03-03 23:55:00,33.5,26.1,29.75,ESE,122,7.0,12.0,74,0.00,,SKC,0.00,VWS V13.01,2013-03-04 05:55:00,